Flight Track Log - Related Links

Times and Time Zones

All times are in EDT time to prevent confusion due to time zone crossing. See the AAL1459 flight status page for this flight to view local times or setup timezone preferences in your user account.

Time Position Orientation Groundspeed Altitude Reporting Facility
EDT Latitude Longitude Course Direction KTS MPH feet Rate Location/Type
Wed 06:31:47 PM 41.9430 -87.9110 220° Southwest 176 203 1,900  Level FlightAware ADS-B
Wed 06:31:57 PM 41.9380 -87.9180 226° Southwest 179 206 2,300 2,100 Climbing FlightAware ADS-B
Wed 06:32:27 PM 41.9160 -87.9440 221° Southwest 214 246 3,300 2,000 Climbing FlightAware ADS-B
Wed 06:32:42 PM 41.9070 -87.9590 231° Southwest 226 260 3,800 1,920 Climbing FlightAware ADS-B
Wed 06:32:52 PM 41.9040 -87.9730 254° West 239 275 4,100 2,550 Climbing FlightAware ADS-B
Wed 06:33:22 PM 41.9010 -88.0210 265° West 262 302 5,500 3,300 Climbing FlightAware ADS-B
Wed 06:33:52 PM 41.8990 -88.0710 267° West 265 305 7,400 3,600 Climbing FlightAware ADS-B
Wed 06:34:17 PM 41.8970 -88.1130 266° West 270 311 8,800 3,257 Climbing FlightAware ADS-B
Wed 06:35:02 PM 41.9080 -88.1880 281° West 281 323 11,200 2,400 Climbing FlightAware ADS-B
Wed 06:35:42 PM 41.9240 -88.2560 288° West 324 373 12,200 1,976 Climbing FlightAware ADS-B
Wed 06:36:27 PM 41.9440 -88.3440 287° West 348 400 14,000 2,612 Climbing FlightAware ADS-B
Wed 06:37:07 PM 41.9650 -88.4300 288° West 358 412 15,900 2,775 Climbing FlightAware ADS-B
Wed 06:37:47 PM 41.9860 -88.5160 288° West 366 421 17,700 2,541 Climbing FlightAware ADS-B
Wed 06:38:32 PM 42.0110 -88.6170 288° West 380 437 19,500 2,400 Climbing FlightAware ADS-B
Wed 06:39:12 PM 42.0330 -88.7080 288° West 389 448 21,100 2,325 Climbing FlightAware ADS-B
Wed 06:39:52 PM 42.0560 -88.8010 288° West 396 456 22,600 2,118 Climbing FlightAware ADS-B
Wed 06:40:37 PM 42.0820 -88.9060 288° West 403 464 24,100 2,047 Climbing FlightAware ADS-B
Wed 06:41:17 PM 42.0810 -89.0100 269° West 409 471 25,500 1,835 Climbing FlightAware ADS-B
Wed 06:42:02 PM 42.0780 -89.1220 268° West 418 481 26,700 1,553 Climbing FlightAware ADS-B
Wed 06:42:42 PM 42.0750 -89.2240 268° West 426 490 27,700 1,624 Climbing FlightAware ADS-B
Wed 06:43:27 PM 42.0710 -89.3460 268° West 431 496 29,000 1,694 Climbing FlightAware ADS-B
Wed 06:44:07 PM 42.0680 -89.4510 268° West 431 496 30,100 1,800 Climbing FlightAware ADS-B
Wed 06:44:47 PM 42.0650 -89.5640 268° West 426 490 31,400 1,765 Climbing FlightAware ADS-B
Wed 06:45:32 PM 42.0620 -89.6770 268° West 422 486 32,600 1,341 Climbing FlightAware ADS-B
Wed 06:46:12 PM 42.0600 -89.7880 269° West 429 494 33,300 1,050 Climbing FlightAware ADS-B
Wed 06:46:52 PM 42.0590 -89.8940 269° West 432 497 34,000 1,129 Climbing FlightAware ADS-B
Wed 06:47:37 PM 42.0580 -90.0100 269° West 433 498 34,900 1,200 Climbing FlightAware ADS-B
Wed 06:48:17 PM 42.0580 -90.1120 270° West 431 496 35,700 1,200 Climbing FlightAware ADS-B
Wed 06:48:52 PM 42.0580 -90.2110 270° West 427 491 36,400 1,320 Climbing FlightAware ADS-B
Wed 06:49:57 PM 42.0610 -90.3800 271° West 411 473 37,900 914 Climbing FlightAware ADS-B
Wed 06:50:37 PM 42.0770 -90.4770 283° West 414 476 38,000 71 Climbing FlightAware ADS-B
Wed 06:51:22 PM 42.0950 -90.5920 282° West 416 479 38,000  Level FlightAware ADS-B
Wed 06:52:02 PM 42.1110 -90.6960 282° West 415 478 38,000  Level FlightAware ADS-B
Wed 06:52:42 PM 42.1250 -90.7880 282° West 414 476 38,000  Level FlightAware ADS-B
Wed 06:53:27 PM 42.1440 -90.9120 282° West 411 473 38,000  Level FlightAware ADS-B
Wed 06:54:07 PM 42.1600 -91.0110 282° West 410 472 38,000  Level FlightAware ADS-B
Wed 06:54:52 PM 42.1760 -91.1180 281° West 406 467 38,000  Level FlightAware ADS-B
Wed 06:55:32 PM 42.1920 -91.2190 282° West 404 465 38,000  Level FlightAware ADS-B
Wed 06:56:17 PM 42.2090 -91.3320 282° West 401 461 38,000  Level FlightAware ADS-B
Wed 06:56:57 PM 42.2220 -91.4220 281° West 399 459 38,000  Level FlightAware ADS-B
Wed 06:57:37 PM 42.2370 -91.5220 281° West 399 459 38,000  Level FlightAware ADS-B
Wed 06:58:22 PM 42.2530 -91.6340 281° West 398 458 38,000  Level FlightAware ADS-B
Wed 06:59:07 PM 42.2690 -91.7460 281° West 401 461 38,000  Level FlightAware ADS-B
Wed 06:59:47 PM 42.2840 -91.8460 281° West 403 464 38,000  Level FlightAware ADS-B
Wed 07:00:32 PM 42.3000 -91.9550 281° West 403 464 38,000  Level FlightAware ADS-B
Wed 07:01:12 PM 42.3140 -92.0510 281° West 404 465 38,000  Level FlightAware ADS-B
Wed 07:01:52 PM 42.3280 -92.1490 281° West 405 466 38,000  Level FlightAware ADS-B
Wed 07:02:37 PM 42.3440 -92.2660 281° West 405 466 38,000  Level FlightAware ADS-B
Wed 07:03:17 PM 42.3580 -92.3660 281° West 406 467 38,000  Level FlightAware ADS-B
Wed 07:03:52 PM 42.3700 -92.4490 281° West 407 468 38,000  Level FlightAware ADS-B
Wed 07:04:32 PM 42.3840 -92.5500 281° West 409 471 38,000  Level FlightAware ADS-B
Wed 07:05:17 PM 42.3990 -92.6630 280° West 409 471 38,000  Level FlightAware ADS-B
Wed 07:05:57 PM 42.4140 -92.7670 281° West 410 472 38,000  Level FlightAware ADS-B
Wed 07:06:37 PM 42.4270 -92.8680 280° West 410 472 38,000  Level FlightAware ADS-B
Wed 07:07:22 PM 42.4420 -92.9790 280° West 410 472 38,000  Level FlightAware ADS-B
Wed 07:08:07 PM 42.4580 -93.0940 281° West 411 473 38,000  Level FlightAware ADS-B
Wed 07:08:47 PM 42.4710 -93.1960 280° West 412 474 38,000  Level FlightAware ADS-B
Wed 07:09:27 PM 42.4840 -93.2950 280° West 414 476 38,000  Level FlightAware ADS-B
Wed 07:10:12 PM 42.4990 -93.4100 280° West 414 476 38,000  Level FlightAware ADS-B
Wed 07:10:52 PM 42.5130 -93.5120 281° West 415 478 38,000  Level FlightAware ADS-B
Wed 07:11:32 PM 42.5260 -93.6150 280° West 416 479 38,000  Level FlightAware ADS-B
Wed 07:12:17 PM 42.5410 -93.7300 280° West 416 479 38,000  Level FlightAware ADS-B
Wed 07:12:57 PM 42.5540 -93.8330 280° West 416 479 38,000  Level FlightAware ADS-B
Wed 07:13:37 PM 42.5670 -93.9370 280° West 418 481 38,000  Level FlightAware ADS-B
Wed 07:14:22 PM 42.5810 -94.0510 280° West 419 482 38,000  Level FlightAware ADS-B
Wed 07:15:07 PM 42.5960 -94.1710 280° West 420 483 38,000  Level FlightAware ADS-B
Wed 07:15:42 PM 42.6060 -94.2560 279° West 422 486 38,000  Level FlightAware ADS-B
Wed 07:16:27 PM 42.6100 -94.3770 273° West 422 486 38,000  Level FlightAware ADS-B
Wed 07:17:07 PM 42.6080 -94.4870 269° West 424 488 38,000  Level FlightAware ADS-B
Wed 07:17:52 PM 42.6070 -94.6030 269° West 425 489 38,000  Level FlightAware ADS-B
Wed 07:18:32 PM 42.6050 -94.7080 269° West 427 491 38,000  Level FlightAware ADS-B
Wed 07:19:17 PM 42.6030 -94.8340 269° West 427 491 38,000  Level FlightAware ADS-B
Wed 07:19:57 PM 42.6010 -94.9390 269° West 426 490 38,000  Level FlightAware ADS-B
Wed 07:20:37 PM 42.5990 -95.0460 269° West 424 488 38,000  Level FlightAware ADS-B
Wed 07:21:22 PM 42.5970 -95.1620 269° West 424 488 38,000  Level FlightAware ADS-B
Wed 07:22:02 PM 42.5940 -95.2700 268° West 424 488 38,000  Level FlightAware ADS-B
Wed 07:22:47 PM 42.5920 -95.3920 269° West 425 489 38,000  Level FlightAware ADS-B
Wed 07:23:27 PM 42.5890 -95.4950 268° West 424 488 38,000  Level FlightAware ADS-B
Wed 07:24:12 PM 42.5870 -95.6150 269° West 424 488 38,000  Level FlightAware ADS-B
Wed 07:24:52 PM 42.5840 -95.7180 268° West 423 487 38,000  Level FlightAware ADS-B
Wed 07:25:32 PM 42.5810 -95.8250 268° West 423 487 38,000  Level FlightAware ADS-B
Wed 07:26:17 PM 42.5780 -95.9440 268° West 423 487 38,000  Level FlightAware ADS-B
Wed 07:26:57 PM 42.5750 -96.0490 268° West 422 486 38,000  Level FlightAware ADS-B
Wed 07:27:42 PM 42.5720 -96.1700 268° West 422 486 38,000  Level FlightAware ADS-B
Wed 07:28:22 PM 42.5690 -96.2710 268° West 423 487 38,000  Level FlightAware ADS-B
Wed 07:29:02 PM 42.5660 -96.3710 268° West 424 488 38,000  Level FlightAware ADS-B
Wed 07:29:47 PM 42.5620 -96.5040 268° West 424 488 38,000  Level FlightAware ADS-B
Wed 07:30:27 PM 42.5580 -96.6040 267° West 425 489 38,000  Level FlightAware ADS-B
Wed 07:31:12 PM 42.5540 -96.7250 267° West 426 490 38,000  Level FlightAware ADS-B
Wed 07:31:52 PM 42.5510 -96.8290 268° West 427 491 38,000  Level FlightAware ADS-B
Wed 07:32:37 PM 42.5460 -96.9480 267° West 428 493 38,000  Level FlightAware ADS-B
Wed 07:33:07 PM 42.5430 -97.0320 267° West 429 494 38,000  Level FlightAware ADS-B
Wed 07:33:57 PM 42.5380 -97.1670 267° West 430 495 38,000  Level FlightAware ADS-B
Wed 07:34:47 PM 42.5330 -97.2920 267° West 430 495 38,000  Level FlightAware ADS-B
Wed 07:35:37 PM 42.5290 -97.4060 267° West 430 495 38,000  Level FlightAware ADS-B
Wed 07:36:17 PM 42.5250 -97.4980 267° West 430 495 38,000  Level FlightAware ADS-B
Wed 07:36:57 PM 42.5220 -97.5900 267° West 430 495 38,000  Level FlightAware ADS-B
Wed 07:37:37 PM 42.5180 -97.6810 267° West 430 495 38,000  Level FlightAware ADS-B
Wed 07:38:27 PM 42.5140 -97.7960 267° West 430 495 38,000  Level FlightAware ADS-B
Wed 07:39:07 PM 42.5100 -97.8870 267° West 430 495 38,000  Level FlightAware ADS-B
Wed 07:39:47 PM 42.5070 -97.9790 267° West 430 495 38,000  Level FlightAware ADS-B
Wed 07:40:27 PM 42.5030 -98.0710 267° West 430 495 38,000  Level FlightAware ADS-B
Wed 07:41:07 PM 42.5000 -98.1620 267° West 430 495 38,000  Level FlightAware ADS-B
Wed 07:41:57 PM 42.4950 -98.2770 267° West 430 495 38,000  Level FlightAware ADS-B
Wed 07:42:37 PM 42.4920 -98.3680 267° West 430 495 38,000  Level FlightAware ADS-B
Wed 07:43:17 PM 42.4880 -98.4600 267° West 430 495 38,000  Level FlightAware ADS-B
Wed 07:43:57 PM 42.4850 -98.5520 267° West 430 495 38,000  Level FlightAware ADS-B
Wed 07:44:35 PM 42.4522 -98.8792 267° West 440 506 38,000  Level Minneapolis Center
Wed 07:45:37 PM 42.4350 -99.0431 262° West 442 509 38,000  Level Minneapolis Center
Wed 07:46:39 PM 42.4186 -99.2050 262° West 438 504 38,000  Level Minneapolis Center
Wed 07:47:41 PM 42.3978 -99.4008 262° West 440 506 38,000  Level Minneapolis Center
Wed 07:48:43 PM 42.3808 -99.5642 262° West 439 505 38,000  Level Minneapolis Center
Wed 07:49:45 PM 42.3636 -99.7281 262° West 442 509 38,000  Level Minneapolis Center
Wed 07:50:47 PM 42.3453 -99.8892 261° West 438 504 38,000  Level Minneapolis Center
Wed 07:51:49 PM 42.3275 -100.0533 262° West 441 507 38,000  Level Minneapolis Center
Wed 07:52:51 PM 42.3092 -100.2169 261° West 441 507 38,000  Level Minneapolis Center
Wed 07:53:53 PM 42.2864 -100.4150 261° West 444 511 38,000  Level Minneapolis Center
Wed 07:54:56 PM 42.2681 -100.5797 262° West 445 512 38,000  Level Minneapolis Center
Wed 07:55:58 PM 42.2478 -100.7428 261° West 442 509 38,000  Level Minneapolis Center
Wed 08:02:01 PM 42.1306 -101.7190 261° West 428 493 38,000  Level FlightAware ADS-B
Wed 08:03:02 PM 42.1102 -101.8800 260° West 427 491 38,000  Level FlightAware ADS-B
Wed 08:03:33 PM 42.1001 -101.9590 260° West 427 491 38,000  Level FlightAware ADS-B
Wed 08:04:06 PM 42.0889 -102.0450 260° West 426 490 38,000  Level FlightAware ADS-B
Wed 08:04:36 PM 42.0787 -102.1240 260° West 427 491 38,000  Level FlightAware ADS-B
Wed 08:05:13 PM 42.0660 -102.2220 260° West 427 491 38,000  Level FlightAware ADS-B
Wed 08:05:44 PM 42.0556 -102.3010 260° West 428 493 38,000  Level FlightAware ADS-B
Wed 08:06:15 PM 42.0449 -102.3830 260° West 428 493 38,000  Level FlightAware ADS-B
Wed 08:06:47 PM 42.0338 -102.4660 260° West 430 495 38,000  Level FlightAware ADS-B
Wed 08:07:17 PM 42.0233 -102.5460 260° West 439 505 38,000  Level FlightAware ADS-B
Wed 08:07:47 PM 42.0124 -102.6270 260° West 441 507 38,000  Level FlightAware ADS-B
Wed 08:08:17 PM 42.0015 -102.7080 260° West 442 509 38,000  Level FlightAware ADS-B
Wed 08:08:47 PM 41.9905 -102.7890 260° West 443 510 38,000  Level FlightAware ADS-B
Wed 08:09:18 PM 41.9793 -102.8710 260° West 445 512 38,000  Level FlightAware ADS-B
Wed 08:09:48 PM 41.9680 -102.9540 260° West 445 512 38,000  Level FlightAware ADS-B
Wed 08:10:18 PM 41.9567 -103.0350 259° West 446 513 38,000  Level FlightAware ADS-B
Wed 08:10:49 PM 41.9453 -103.1180 260° West 446 513 38,000  Level FlightAware ADS-B
Wed 08:11:19 PM 41.9338 -103.2000 259° West 446 513 38,000  Level FlightAware ADS-B
Wed 08:11:50 PM 41.9223 -103.2840 260° West 445 512 38,000  Level FlightAware ADS-B
Wed 08:12:25 PM 41.9087 -103.3800 259° West 445 512 38,000  Level FlightAware ADS-B
Wed 08:12:56 PM 41.8971 -103.4620 259° West 445 512 38,000  Level FlightAware ADS-B
Wed 08:13:04 PM 41.8949 -103.4840 262° West 445 512 38,000  Level FlightAware ADS-B
Wed 08:13:13 PM 41.8933 -103.5100 265° West 445 512 38,000  Level FlightAware ADS-B
Wed 08:13:43 PM 41.8906 -103.5930 268° West 443 510 38,000  Level FlightAware ADS-B
Wed 08:14:14 PM 41.8880 -103.6770 268° West 442 509 38,000  Level FlightAware ADS-B
Wed 08:14:45 PM 41.8853 -103.7600 268° West 442 509 38,000  Level FlightAware ADS-B
Wed 08:15:15 PM 41.8825 -103.8430 267° West 442 509 38,000  Level FlightAware ADS-B
Wed 08:15:48 PM 41.8794 -103.9340 267° West 442 509 38,000  Level FlightAware ADS-B
Wed 08:16:19 PM 41.8764 -104.0180 267° West 443 510 38,000  Level FlightAware ADS-B
Wed 08:16:51 PM 41.8733 -104.1060 267° West 445 512 38,000  Level FlightAware ADS-B
Wed 08:17:21 PM 41.8703 -104.1900 267° West 447 514 38,000  Level FlightAware ADS-B
Wed 08:17:52 PM 41.8670 -104.2740 267° West 448 516 38,000  Level FlightAware ADS-B
Wed 08:18:23 PM 41.8636 -104.3600 267° West 450 518 38,000  Level FlightAware ADS-B
Wed 08:18:53 PM 41.8604 -104.4440 267° West 452 520 38,000  Level FlightAware ADS-B
Wed 08:19:24 PM 41.8569 -104.5310 267° West 452 520 38,000  Level FlightAware ADS-B
Wed 08:19:54 PM 41.8536 -104.6150 267° West 452 520 38,000  Level FlightAware ADS-B
Wed 08:20:24 PM 41.8500 -104.6990 267° West 451 519 38,000  Level FlightAware ADS-B
Wed 08:20:55 PM 41.8464 -104.7840 267° West 450 518 38,000  Level FlightAware ADS-B
Wed 08:21:26 PM 41.8430 -104.8690 267° West 449 517 38,000  Level FlightAware ADS-B
Wed 08:21:57 PM 41.8395 -104.9550 267° West 447 514 38,000  Level FlightAware ADS-B
Wed 08:22:28 PM 41.8359 -105.0400 267° West 446 513 38,000  Level FlightAware ADS-B
Wed 08:22:59 PM 41.8320 -105.1260 267° West 445 512 38,000  Level FlightAware ADS-B
Wed 08:23:29 PM 41.8281 -105.2090 266° West 444 511 38,000  Level FlightAware ADS-B
Wed 08:24:16 PM 41.8219 -105.3380 266° West 443 510 38,000  Level FlightAware ADS-B
Wed 08:25:12 PM 41.8150 -105.4860 266° West 445 512 38,000  Level FlightAware ADS-B
Wed 08:26:02 PM 41.8080 -105.6250 266° West 445 512 38,000  Level FlightAware ADS-B
Wed 08:26:42 PM 41.8030 -105.7310 266° West 447 514 38,000  Level FlightAware ADS-B
Wed 08:27:22 PM 41.7970 -105.8460 266° West 448 516 38,000  Level FlightAware ADS-B
Wed 08:28:07 PM 41.7910 -105.9670 266° West 450 518 38,000  Level FlightAware ADS-B
Wed 08:28:47 PM 41.7850 -106.0740 266° West 452 520 38,000  Level FlightAware ADS-B
Wed 08:29:32 PM 41.7780 -106.2040 266° West 453 521 38,000  Level FlightAware ADS-B
Wed 08:30:12 PM 41.7720 -106.3160 266° West 454 522 38,000  Level FlightAware ADS-B
Wed 08:30:52 PM 41.7660 -106.4300 266° West 456 525 38,000  Level FlightAware ADS-B
Wed 08:31:37 PM 41.7590 -106.5410 265° West 456 525 38,000  Level FlightAware ADS-B
Wed 08:32:17 PM 41.7530 -106.6370 265° West 456 525 38,000  Level FlightAware ADS-B
Wed 08:32:57 PM 41.7460 -106.7330 264° West 456 525 38,000  Level FlightAware ADS-B
Wed 08:33:37 PM 41.7400 -106.8280 265° West 456 525 38,000  Level FlightAware ADS-B
Wed 08:34:17 PM 41.7340 -106.9240 265° West 456 525 38,000  Level FlightAware ADS-B
Wed 08:35:07 PM 41.7260 -107.0440 265° West 456 525 38,000  Level FlightAware ADS-B
Wed 08:35:47 PM 41.7200 -107.1400 265° West 456 525 38,000  Level FlightAware ADS-B
Wed 08:36:27 PM 41.7140 -107.2350 265° West 456 525 38,000  Level FlightAware ADS-B
Wed 08:37:07 PM 41.7070 -107.3310 264° West 456 525 38,000  Level FlightAware ADS-B
Wed 08:37:47 PM 41.7010 -107.4270 265° West 456 525 38,000  Level FlightAware ADS-B
Wed 08:38:27 PM 41.6950 -107.5230 265° West 456 525 38,000  Level FlightAware ADS-B
Wed 08:39:07 PM 41.6890 -107.6180 265° West 456 525 38,000  Level FlightAware ADS-B
Wed 08:39:47 PM 41.6820 -107.7140 264° West 456 525 38,000  Level FlightAware ADS-B
Wed 08:40:37 PM 41.6740 -107.8340 265° West 456 525 38,000  Level FlightAware ADS-B
Wed 08:41:07 PM 41.6700 -107.9050 266° West 456 525 38,000  Level FlightAware ADS-B
Wed 08:41:39 PM 41.6519 -108.2097 266° West 452 520 38,000  Level Denver Center
Wed 08:42:51 PM 41.6361 -108.4264 264° West 456 525 38,000  Level Salt Lake Center
Wed 08:43:52 PM 41.6236 -108.5872 264° West 458 527 38,000  Level Salt Lake Center
Wed 08:44:54 PM 41.6092 -108.7750 264° West 457 526 38,000  Level Salt Lake Center
Wed 08:45:56 PM 41.5964 -108.9364 264° West 458 527 38,000  Level Salt Lake Center
Wed 08:46:57 PM 41.5872 -109.1222 266° West 458 527 38,000  Level Salt Lake Center
Wed 08:47:59 PM 41.5831 -109.2811 268° West 457 526 38,000  Level Salt Lake Center
Wed 08:49:01 PM 41.5778 -109.4675 268° West 454 522 38,000  Level Salt Lake Center
Wed 08:50:02 PM 41.5728 -109.6264 268° West 452 520 38,000  Level Salt Lake Center
Wed 08:51:04 PM 41.5658 -109.8136 267° West 454 522 38,000  Level Salt Lake Center
Wed 08:52:06 PM 41.5611 -109.9747 268° West 454 522 38,000  Level Salt Lake Center
Wed 08:53:07 PM 41.5539 -110.1631 267° West 456 525 38,000  Level Salt Lake Center
Wed 08:54:09 PM 41.5486 -110.3258 268° West 459 528 38,000  Level Salt Lake Center
Wed 08:55:10 PM 41.5403 -110.5136 267° West 456 525 38,000  Level Salt Lake Center
Wed 08:56:12 PM 41.5353 -110.6750 268° West 456 525 38,000  Level Salt Lake Center
Wed 08:57:14 PM 41.5278 -110.8361 266° West 455 524 38,000  Level Salt Lake Center
Wed 08:58:15 PM 41.5206 -111.0122 267° West 453 521 38,000  Level Salt Lake Center
Wed 08:59:17 PM 41.5119 -111.1792 266° West 454 522 38,000  Level Salt Lake Center
Wed 09:04:37 PM 41.4680 -112.0980 266° West 460 529 38,000  Level FlightAware ADS-B
Wed 09:05:32 PM 41.4600 -112.2600 266° West 461 531 38,000  Level FlightAware ADS-B
Wed 09:06:12 PM 41.4540 -112.3640 266° West 462 532 38,000  Level FlightAware ADS-B
Wed 09:06:57 PM 41.4470 -112.4970 266° West 463 533 38,000  Level FlightAware ADS-B
Wed 09:07:37 PM 41.4400 -112.6110 265° West 464 534 38,000  Level FlightAware ADS-B
Wed 09:08:17 PM 41.4340 -112.7250 266° West 465 535 38,000  Level FlightAware ADS-B
Wed 09:09:02 PM 41.4260 -112.8520 265° West 465 535 38,000  Level FlightAware ADS-B
Wed 09:09:42 PM 41.4190 -112.9670 265° West 465 535 38,000  Level FlightAware ADS-B
Wed 09:10:27 PM 41.4120 -113.0790 265° West 465 535 38,000  Level FlightAware ADS-B
Wed 09:11:07 PM 41.4060 -113.1760 265° West 465 535 38,000  Level FlightAware ADS-B
Wed 09:11:47 PM 41.3990 -113.2730 265° West 465 535 38,000  Level FlightAware ADS-B
Wed 09:12:27 PM 41.3930 -113.3700 265° West 465 535 38,000  Level FlightAware ADS-B
Wed 09:13:07 PM 41.3860 -113.4670 265° West 465 535 38,000  Level FlightAware ADS-B
Wed 09:13:57 PM 41.3790 -113.5890 266° West 465 535 38,000  Level FlightAware ADS-B
Wed 09:14:37 PM 41.3720 -113.6860 265° West 465 535 38,000  Level FlightAware ADS-B
Wed 09:15:17 PM 41.3660 -113.7830 265° West 465 535 38,000  Level FlightAware ADS-B
Wed 09:15:57 PM 41.3590 -113.8800 265° West 465 535 38,000  Level FlightAware ADS-B
Wed 09:16:37 PM 41.3530 -113.9770 265° West 465 535 38,000  Level FlightAware ADS-B
Wed 09:17:27 PM 41.3450 -114.0980 265° West 465 535 38,000  Level FlightAware ADS-B
Wed 09:18:07 PM 41.3390 -114.1950 265° West 465 535 38,000  Level FlightAware ADS-B
Wed 09:18:47 PM 41.3320 -114.2920 265° West 465 535 38,000  Level FlightAware ADS-B
Wed 09:19:27 PM 41.3260 -114.3890 265° West 465 535 38,000  Level FlightAware ADS-B
Wed 09:19:47 PM 41.0814 -114.6153 265° West 468 539 38,000  Level Salt Lake Center
Wed 09:20:48 PM 41.0472 -114.7797 255° West 465 535 38,000  Level Salt Lake Center
Wed 09:21:50 PM 41.0078 -114.9564 254° West 474 545 38,000  Level Salt Lake Center
Wed 09:22:51 PM 40.9642 -115.1419 253° West 473 544 38,000  Level Salt Lake Center
Wed 09:23:53 PM 40.9281 -115.3008 253° West 471 542 38,000  Level Salt Lake Center
Wed 09:24:54 PM 40.8911 -115.4606 253° West 473 544 38,000  Level Salt Lake Center
Wed 09:25:55 PM 40.8492 -115.6467 253° West 473 544 38,000  Level Salt Lake Center
Wed 09:26:57 PM 40.8125 -115.8061 253° West 474 545 38,000  Level Salt Lake Center
Wed 09:27:58 PM 40.7697 -115.9903 253° West 472 543 38,000  Level Salt Lake Center
Wed 09:29:00 PM 40.7325 -116.1489 253° West 473 544 38,000  Level Salt Lake Center
Wed 09:30:01 PM 40.6944 -116.3092 253° West 477 549 38,000  Level Salt Lake Center
Wed 09:31:02 PM 40.6500 -116.4928 252° West 474 545 38,000  Level Salt Lake Center
Wed 09:32:04 PM 40.6122 -116.6506 253° West 474 545 38,000  Level Salt Lake Center
Wed 09:33:05 PM 40.5686 -116.8314 252° West 470 541 38,000  Level Salt Lake Center
Wed 09:34:06 PM 40.5306 -116.9850 252° West 471 542 38,000  Level Salt Lake Center
Wed 09:35:08 PM 40.4864 -117.1650 252° West 471 542 38,000  Level Salt Lake Center
Wed 09:36:10 PM 40.4475 -117.3192 252° West 468 539 38,000  Level Salt Lake Center
Wed 09:37:11 PM 40.4019 -117.4992 252° West 466 536 38,000  Level Salt Lake Center
Wed 09:38:12 PM 40.3628 -117.6525 252° West 465 535 38,000  Level Salt Lake Center
Wed 09:39:16 PM 40.3250 -117.8061 252° West 464 534 38,000  Level Salt Lake Center
Wed 09:39:40 PM 40.3061 -117.8814 252° West 462 532 38,000 -1,482 Level Oakland Center
Wed 09:40:41 PM 40.2644 -118.0444 252° West 468 539 35,900 -2,488 Descending Oakland Center
Wed 09:41:43 PM 40.2239 -118.2056 252° West 468 539 32,900 -2,683 Descending Oakland Center
Wed 09:42:44 PM 40.1814 -118.3681 251° West 473 544 30,400 -2,361 Descending Oakland Center
Wed 09:43:45 PM 40.1333 -118.5525 251° West 451 519 28,100 -2,262 Descending Oakland Center
Wed 09:44:46 PM 40.1017 -118.7033 255° West 437 503 25,800 -2,213 Descending Oakland Center
Wed 09:45:47 PM 40.0728 -118.8544 256° West 432 497 23,600 -2,164 Descending Oakland Center
Wed 09:46:48 PM 40.0439 -118.9992 255° West 419 482 21,400 -2,115 Descending Oakland Center
Wed 09:47:49 PM 40.0000 -119.1325 247° West 404 465 19,300 -1,770 Descending Oakland Center
Wed 09:48:50 PM 39.9486 -119.2575 242° Southwest 396 456 17,800 -1,420 Descending Oakland Center
Wed 09:54:22 PM 39.7150 -119.7310 242° Southwest 260 299 10,000 -1,429 Descending FlightAware ADS-B
Wed 09:55:12 PM 39.6840 -119.7950 238° Southwest 232 267 8,700 -1,000 Descending FlightAware ADS-B
Wed 09:55:52 PM 39.6620 -119.8330 233° Southwest 213 245 8,500 -1,680 Descending FlightAware ADS-B
Wed 09:56:02 PM 39.6410 -119.8050 134° Southeast 195 224 7,300 -2,133 Descending FlightAware ADS-B
Wed 09:56:37 PM 39.6220 -119.7800 135° Southeast 171 197 6,900 -840 Descending FlightAware ADS-B
Wed 09:56:52 PM 39.6120 -119.7710 145° Southeast 161 185 6,600 -1,200 Descending FlightAware ADS-B
Wed 09:57:07 PM 39.6000 -119.7670 166° South 160 184 6,300 -1,680 Descending FlightAware ADS-B
Wed 09:57:17 PM 39.5900 -119.7660 176° South 161 185 5,900 -1,371 Descending FlightAware ADS-B
Wed 09:57:42 PM 39.5730 -119.7670 183° South 157 181 5,500 -857 Descending FlightAware ADS-B
Wed 09:58:27 PM 39.5400 -119.7670 180° South 159 183 4,900 -525 Descending FlightAware ADS-B
Wed 09:59:02 PM 39.5210 -119.7670 180° South 159 183 4,800 -171 Descending FlightAware ADS-B

Login

Don't have an account? Register now (free) for customized features, flight alerts, and more!